createdAt,value
2023-12-20T00:02:13.498Z,6.40
2023-12-20T00:08:00.803Z,6.49
2023-12-20T00:13:52.128Z,6.56
2023-12-20T00:19:39.473Z,6.44
2023-12-20T00:25:29.516Z,6.56
2023-12-20T00:31:19.238Z,6.54
2023-12-20T00:37:06.043Z,6.45
2023-12-20T00:42:59.315Z,6.57
2023-12-20T00:48:47.141Z,6.76
2023-12-20T00:54:43.168Z,6.51
2023-12-20T01:07:46.285Z,6.59
2023-12-20T01:13:33.487Z,6.61
2023-12-20T01:19:20.493Z,6.72
2023-12-20T01:25:08.931Z,6.66
2023-12-20T01:30:55.915Z,6.74
2023-12-20T01:36:44.093Z,6.87
2023-12-20T01:42:33.940Z,6.68
2023-12-20T01:48:25.963Z,6.80
2023-12-20T01:54:18.065Z,6.69
2023-12-20T02:00:05.641Z,6.88
2023-12-20T02:05:56.620Z,6.69
2023-12-20T02:11:44.572Z,6.57
2023-12-20T02:17:44.812Z,6.78
2023-12-20T02:23:31.976Z,6.73
2023-12-20T02:29:18.766Z,6.90
2023-12-20T02:35:08.747Z,6.89
2023-12-20T02:40:58.432Z,6.84
2023-12-20T02:46:55.630Z,6.82
2023-12-20T02:52:47.904Z,6.79
2023-12-20T02:58:35.016Z,6.67
2023-12-20T03:04:25.368Z,6.72
2023-12-20T03:10:19.947Z,6.87
2023-12-20T03:16:14.765Z,6.76
2023-12-20T03:22:02.321Z,6.67
2023-12-20T03:27:54.012Z,6.51
2023-12-20T03:33:40.944Z,6.63
2023-12-20T03:39:27.877Z,6.50
2023-12-20T03:45:14.860Z,6.41
2023-12-20T03:51:01.709Z,6.57
2023-12-20T03:56:48.682Z,6.45
2023-12-20T04:03:18.970Z,6.66
2023-12-20T04:09:05.976Z,6.64
2023-12-20T04:15:00.169Z,6.51
2023-12-20T04:20:50.689Z,6.56
2023-12-20T04:26:37.707Z,6.67
2023-12-20T04:32:30.485Z,6.66
2023-12-20T04:38:24.793Z,6.81
2023-12-20T04:44:32.062Z,6.95
2023-12-20T04:50:19.310Z,6.90
2023-12-20T04:56:06.813Z,6.91
2023-12-20T05:01:55.594Z,6.95
2023-12-20T05:07:42.873Z,6.96
2023-12-20T05:13:38.138Z,7.09
2023-12-20T05:19:32.389Z,6.86
2023-12-20T05:25:20.181Z,7.05
2023-12-20T05:31:08.231Z,7.00
2023-12-20T05:36:59.506Z,6.87
2023-12-20T05:42:47.946Z,7.01
2023-12-20T05:48:35.012Z,6.94
2023-12-20T05:54:23.257Z,6.95
2023-12-20T06:00:13.183Z,6.88
2023-12-20T06:06:10.855Z,6.84
2023-12-20T06:12:02.916Z,6.73
2023-12-20T06:17:50.217Z,6.88
2023-12-20T06:23:37.344Z,6.80
2023-12-20T06:29:36.108Z,6.86
2023-12-20T06:35:24.251Z,6.91
2023-12-20T06:41:15.119Z,7.05
2023-12-20T06:47:03.418Z,7.06
2023-12-20T06:52:50.556Z,7.15
2023-12-20T06:58:39.044Z,6.96
2023-12-20T07:04:30.183Z,7.07
2023-12-20T07:10:28.508Z,6.88
2023-12-20T07:16:15.411Z,7.07
2023-12-20T07:22:05.144Z,7.13
2023-12-20T07:27:52.521Z,7.07
2023-12-20T07:34:02.951Z,7.25
2023-12-20T07:39:50.310Z,7.31
2023-12-20T07:45:37.303Z,7.15
2023-12-20T07:51:24.090Z,7.14
2023-12-20T07:57:13.473Z,7.11
2023-12-20T08:03:00.822Z,7.16
2023-12-20T08:08:55.381Z,7.06
2023-12-20T08:14:48.580Z,7.16
2023-12-20T08:20:40.581Z,7.28
2023-12-20T08:26:28.360Z,7.13
2023-12-20T08:32:15.812Z,7.35
2023-12-20T08:38:02.661Z,7.23
2023-12-20T08:43:49.509Z,7.39
2023-12-20T08:49:36.774Z,7.79
2023-12-20T08:55:24.157Z,8.10
2023-12-20T09:01:34.959Z,8.15
2023-12-20T09:07:34.476Z,8.23
2023-12-20T09:13:21.990Z,8.51
2023-12-20T09:19:11.454Z,8.66
2023-12-20T09:24:58.417Z,8.86
2023-12-20T09:30:47.588Z,8.89
2023-12-20T09:36:38.499Z,9.21
2023-12-20T09:42:43.590Z,9.50
2023-12-20T09:48:32.509Z,9.81
2023-12-20T09:55:00.469Z,9.56
2023-12-20T10:00:58.935Z,9.43
2023-12-20T10:07:10.335Z,9.39
2023-12-20T10:13:12.226Z,9.41
2023-12-20T10:19:02.587Z,9.44
2023-12-20T10:24:49.551Z,9.40
2023-12-20T10:30:37.206Z,9.53
2023-12-20T10:36:27.921Z,9.51
2023-12-20T10:42:17.133Z,9.58
2023-12-20T10:48:05.307Z,9.71
2023-12-20T10:53:54.232Z,9.80
2023-12-20T10:59:42.505Z,9.80
2023-12-20T11:05:43.270Z,9.81
2023-12-20T11:11:57.930Z,9.84
2023-12-20T11:17:56.384Z,9.84
2023-12-20T11:23:43.922Z,9.77
2023-12-20T11:29:38.603Z,9.92
2023-12-20T11:35:28.551Z,9.80
2023-12-20T11:41:17.068Z,10.04
2023-12-20T11:47:06.591Z,10.22
2023-12-20T11:52:54.885Z,10.37
2023-12-20T11:58:42.574Z,10.45
2023-12-20T12:04:29.613Z,10.49
2023-12-20T12:10:16.589Z,10.78
2023-12-20T12:16:03.787Z,10.89
2023-12-20T12:21:51.775Z,10.87
2023-12-20T12:27:40.646Z,11.26
2023-12-20T12:33:28.032Z,11.21
2023-12-20T12:39:19.133Z,11.51
2023-12-20T12:45:06.706Z,11.51
2023-12-20T12:51:00.467Z,11.54
2023-12-20T12:56:49.261Z,11.48
2023-12-20T13:02:43.074Z,11.61
2023-12-20T13:08:31.223Z,11.53
2023-12-20T13:14:21.953Z,11.73
2023-12-20T13:20:10.129Z,11.76
2023-12-20T13:25:57.117Z,11.73
2023-12-20T13:31:54.601Z,11.68
2023-12-20T13:37:41.644Z,11.53
2023-12-20T13:43:28.695Z,11.76
2023-12-20T13:49:15.920Z,11.73
2023-12-20T13:55:09.592Z,11.81
2023-12-20T14:00:56.798Z,11.50
2023-12-20T14:06:43.847Z,11.67
2023-12-20T14:12:30.928Z,11.75
2023-12-20T14:18:18.369Z,11.61
2023-12-20T14:24:05.752Z,11.81
2023-12-20T14:29:56.132Z,11.80
2023-12-20T14:35:45.761Z,11.92
2023-12-20T14:41:38.215Z,11.81
2023-12-20T14:47:26.267Z,11.78
2023-12-20T14:53:23.750Z,11.55
2023-12-20T14:59:13.268Z,11.61
2023-12-20T15:05:02.338Z,11.58
2023-12-20T15:10:49.281Z,11.46
2023-12-20T15:16:36.959Z,11.43
2023-12-20T15:22:25.023Z,11.36
2023-12-20T15:28:12.361Z,11.45
2023-12-20T15:34:03.914Z,11.58
2023-12-20T15:40:06.438Z,11.61
2023-12-20T15:45:53.747Z,11.40
2023-12-20T15:51:40.890Z,11.48
2023-12-20T15:57:29.425Z,11.67
2023-12-20T16:03:24.858Z,11.60
2023-12-20T16:15:32.191Z,11.46
2023-12-20T16:21:19.481Z,11.48
2023-12-20T16:27:06.526Z,11.53
2023-12-20T16:32:53.620Z,11.59
2023-12-20T16:38:40.602Z,11.50
2023-12-20T16:44:39.871Z,11.64
2023-12-20T16:50:38.557Z,11.31
2023-12-20T16:56:29.723Z,11.38
2023-12-20T17:02:21.015Z,11.29
2023-12-20T17:08:08.760Z,11.26
2023-12-20T17:13:55.786Z,11.14
2023-12-20T17:19:48.158Z,11.05
2023-12-20T17:25:43.005Z,11.07
2023-12-20T17:31:30.088Z,10.90
2023-12-20T17:37:19.817Z,11.03
2023-12-20T17:43:07.034Z,11.15
2023-12-20T17:48:54.342Z,10.92
2023-12-20T17:54:46.582Z,10.98
2023-12-20T18:00:38.535Z,10.91
2023-12-20T18:06:25.835Z,10.94
2023-12-20T18:12:12.852Z,10.87
2023-12-20T18:17:59.836Z,10.99
2023-12-20T18:23:49.254Z,10.92
2023-12-20T18:29:37.242Z,11.02
2023-12-20T18:35:24.306Z,11.00
2023-12-20T18:41:15.781Z,10.95
2023-12-20T18:47:06.811Z,11.23
2023-12-20T18:52:54.293Z,11.30
2023-12-20T18:58:41.301Z,11.14
2023-12-20T19:04:28.245Z,11.29
2023-12-20T19:10:15.345Z,11.43
2023-12-20T19:16:02.783Z,11.20
2023-12-20T19:21:49.841Z,10.98
2023-12-20T19:27:37.196Z,11.10
2023-12-20T19:33:24.232Z,11.08
2023-12-20T19:39:11.311Z,10.81
2023-12-20T19:44:58.366Z,10.91
2023-12-20T19:50:45.451Z,10.95
2023-12-20T19:56:32.440Z,10.93
2023-12-20T20:02:23.529Z,11.02
2023-12-20T20:08:12.804Z,10.90
2023-12-20T20:14:00.998Z,10.81
2023-12-20T20:19:48.213Z,10.86
2023-12-20T20:25:35.293Z,10.85
2023-12-20T20:31:22.229Z,10.95
2023-12-20T20:37:09.171Z,10.82
2023-12-20T20:42:56.369Z,11.03
2023-12-20T20:48:50.416Z,10.97
2023-12-20T20:54:38.992Z,10.98
2023-12-20T21:00:25.967Z,10.96
2023-12-20T21:06:13.382Z,10.98
2023-12-20T21:12:01.409Z,10.92
2023-12-20T21:17:49.369Z,10.98
2023-12-20T21:23:37.686Z,10.85
2023-12-20T21:29:25.005Z,11.02
2023-12-20T21:35:13.722Z,11.10
2023-12-20T21:41:03.465Z,11.19
2023-12-20T21:46:50.344Z,11.23
2023-12-20T21:52:37.201Z,11.16
2023-12-20T21:58:24.415Z,11.12
2023-12-20T22:04:11.599Z,11.05
2023-12-20T22:10:04.294Z,11.28
2023-12-20T22:15:52.598Z,11.28
2023-12-20T22:21:42.114Z,11.53
2023-12-20T22:27:48.433Z,11.37
2023-12-20T22:42:04.151Z,11.52
2023-12-20T22:47:57.610Z,11.47
2023-12-20T23:00:56.686Z,11.62
2023-12-20T23:07:01.927Z,11.73
2023-12-20T23:13:04.070Z,11.66
2023-12-20T23:18:53.476Z,11.75
2023-12-20T23:24:40.570Z,11.63
2023-12-20T23:30:28.305Z,11.60
2023-12-20T23:36:15.084Z,11.41
2023-12-20T23:42:01.889Z,11.58
2023-12-20T23:47:49.301Z,11.60
2023-12-20T23:53:42.409Z,11.70
2023-12-20T23:59:32.411Z,11.50
